Terminal Aerodrome Forecast
Issued by NWS Northern Indiana

Home | Current Version | Previous Version | Text Only | Print | Product List | Glossary On
Versions: 1 2 3 4 5 6 7 8 9 10 11 12 13 14 15 16
000
FTUS43 KIWX 280520
TAFFWA
TAF
KFWA 280520Z 2806/2906 08003KT P6SM FEW040 SCT250
      TEMPO 2810/2812 3SM BR
     FM281300 17005KT P6SM SCT030 SCT250
     FM281600 19008KT P6SM SCT040 BKN250
     FM290100 13005KT P6SM FEW040 OVC200=

USA.gov is the U.S. government's official web portal to all federal, state and local government web resources and services.